sensor_id;sensor_type;location;lat;lon;timestamp;P1;durP1;ratioP1;P2;durP2;ratioP2
54241;SDS011;40156;51.080;17.082;2022-07-22T00:00:56;6.10;;;4.40;;
54241;SDS011;40156;51.080;17.082;2022-07-22T00:03:23;7.07;;;4.57;;
54241;SDS011;40156;51.080;17.082;2022-07-22T00:05:50;7.70;;;4.68;;
54241;SDS011;40156;51.080;17.082;2022-07-22T00:08:18;6.10;;;4.80;;
54241;SDS011;40156;51.080;17.082;2022-07-22T00:10:45;6.53;;;4.90;;
54241;SDS011;40156;51.080;17.082;2022-07-22T00:13:13;5.13;;;3.80;;
54241;SDS011;40156;51.080;17.082;2022-07-22T00:21:30;6.80;;;4.07;;
54241;SDS011;40156;51.080;17.082;2022-07-22T00:23:58;6.72;;;4.50;;
54241;SDS011;40156;51.080;17.082;2022-07-22T00:29:47;7.07;;;5.03;;
54241;SDS011;40156;51.080;17.082;2022-07-22T00:32:15;5.55;;;4.55;;
54241;SDS011;40156;51.080;17.082;2022-07-22T00:34:43;6.13;;;4.70;;
54241;SDS011;40156;51.080;17.082;2022-07-22T00:37:10;9.43;;;5.65;;
54241;SDS011;40156;51.080;17.082;2022-07-22T00:39:37;5.88;;;4.53;;
54241;SDS011;40156;51.080;17.082;2022-07-22T00:42:05;7.20;;;4.75;;
54241;SDS011;40156;51.080;17.082;2022-07-22T00:47:42;9.77;;;4.68;;
54241;SDS011;40156;51.080;17.082;2022-07-22T00:50:16;9.93;;;5.30;;
54241;SDS011;40156;51.080;17.082;2022-07-22T00:52:44;8.98;;;5.40;;
54241;SDS011;40156;51.080;17.082;2022-07-22T00:55:12;6.50;;;4.53;;
54241;SDS011;40156;51.080;17.082;2022-07-22T00:57:39;8.35;;;5.25;;
54241;SDS011;40156;51.080;17.082;2022-07-22T01:00:15;7.35;;;4.97;;
54241;SDS011;40156;51.080;17.082;2022-07-22T01:02:42;7.18;;;4.80;;
54241;SDS011;40156;51.080;17.082;2022-07-22T01:08:23;6.68;;;4.60;;
54241;SDS011;40156;51.080;17.082;2022-07-22T01:10:51;5.07;;;4.30;;
54241;SDS011;40156;51.080;17.082;2022-07-22T01:13:18;8.43;;;4.85;;
54241;SDS011;40156;51.080;17.082;2022-07-22T01:15:45;8.90;;;5.25;;
54241;SDS011;40156;51.080;17.082;2022-07-22T01:18:13;7.70;;;5.45;;
54241;SDS011;40156;51.080;17.082;2022-07-22T01:20:40;6.20;;;5.07;;
54241;SDS011;40156;51.080;17.082;2022-07-22T01:23:08;7.78;;;4.80;;
54241;SDS011;40156;51.080;17.082;2022-07-22T01:25:35;8.52;;;5.50;;
54241;SDS011;40156;51.080;17.082;2022-07-22T01:28:03;6.65;;;4.88;;
54241;SDS011;40156;51.080;17.082;2022-07-22T01:30:36;9.10;;;5.63;;
54241;SDS011;40156;51.080;17.082;2022-07-22T01:33:04;6.00;;;5.05;;
54241;SDS011;40156;51.080;17.082;2022-07-22T01:38:18;7.72;;;5.18;;
54241;SDS011;40156;51.080;17.082;2022-07-22T01:40:45;7.70;;;5.07;;
54241;SDS011;40156;51.080;17.082;2022-07-22T01:43:13;7.60;;;5.10;;
54241;SDS011;40156;51.080;17.082;2022-07-22T01:45:41;6.38;;;5.22;;
54241;SDS011;40156;51.080;17.082;2022-07-22T01:48:08;11.93;;;5.78;;
54241;SDS011;40156;51.080;17.082;2022-07-22T01:50:36;10.13;;;5.47;;
54241;SDS011;40156;51.080;17.082;2022-07-22T01:53:03;11.30;;;5.60;;
54241;SDS011;40156;51.080;17.082;2022-07-22T01:55:33;8.55;;;5.30;;
54241;SDS011;40156;51.080;17.082;2022-07-22T01:58:01;7.40;;;5.35;;
54241;SDS011;40156;51.080;17.082;2022-07-22T02:07:18;7.03;;;5.40;;
54241;SDS011;40156;51.080;17.082;2022-07-22T02:09:45;6.85;;;5.70;;
54241;SDS011;40156;51.080;17.082;2022-07-22T02:12:13;9.57;;;5.50;;
54241;SDS011;40156;51.080;17.082;2022-07-22T02:14:40;9.02;;;6.07;;
54241;SDS011;40156;51.080;17.082;2022-07-22T02:17:08;9.00;;;5.70;;
54241;SDS011;40156;51.080;17.082;2022-07-22T02:19:37;9.38;;;5.90;;
54241;SDS011;40156;51.080;17.082;2022-07-22T02:22:04;11.02;;;6.35;;
54241;SDS011;40156;51.080;17.082;2022-07-22T02:27:45;11.48;;;5.55;;
54241;SDS011;40156;51.080;17.082;2022-07-22T02:30:12;10.13;;;6.30;;
54241;SDS011;40156;51.080;17.082;2022-07-22T02:32:40;10.65;;;6.53;;
54241;SDS011;40156;51.080;17.082;2022-07-22T02:35:07;7.63;;;5.30;;
54241;SDS011;40156;51.080;17.082;2022-07-22T02:37:35;10.15;;;5.70;;
54241;SDS011;40156;51.080;17.082;2022-07-22T02:40:03;7.85;;;5.93;;
54241;SDS011;40156;51.080;17.082;2022-07-22T02:42:49;10.77;;;6.05;;
54241;SDS011;40156;51.080;17.082;2022-07-22T02:48:58;9.43;;;6.17;;
54241;SDS011;40156;51.080;17.082;2022-07-22T02:51:26;7.22;;;5.57;;
54241;SDS011;40156;51.080;17.082;2022-07-22T02:53:54;8.65;;;6.18;;
54241;SDS011;40156;51.080;17.082;2022-07-22T02:56:21;9.88;;;5.95;;
54241;SDS011;40156;51.080;17.082;2022-07-22T02:58:49;10.48;;;6.55;;
54241;SDS011;40156;51.080;17.082;2022-07-22T03:01:16;10.85;;;6.15;;
54241;SDS011;40156;51.080;17.082;2022-07-22T03:03:43;10.40;;;6.90;;
54241;SDS011;40156;51.080;17.082;2022-07-22T03:06:11;9.15;;;6.45;;
54241;SDS011;40156;51.080;17.082;2022-07-22T03:08:39;9.73;;;5.78;;
54241;SDS011;40156;51.080;17.082;2022-07-22T03:11:13;9.35;;;5.85;;
54241;SDS011;40156;51.080;17.082;2022-07-22T03:13:50;14.68;;;5.85;;
54241;SDS011;40156;51.080;17.082;2022-07-22T03:19:08;9.70;;;6.75;;
54241;SDS011;40156;51.080;17.082;2022-07-22T03:21:35;14.00;;;6.15;;
54241;SDS011;40156;51.080;17.082;2022-07-22T03:24:02;9.82;;;5.82;;
54241;SDS011;40156;51.080;17.082;2022-07-22T03:26:30;12.60;;;6.35;;
54241;SDS011;40156;51.080;17.082;2022-07-22T03:28:57;9.52;;;6.13;;
54241;SDS011;40156;51.080;17.082;2022-07-22T03:31:25;12.13;;;5.90;;
54241;SDS011;40156;51.080;17.082;2022-07-22T03:33:53;14.25;;;7.97;;
54241;SDS011;40156;51.080;17.082;2022-07-22T03:36:21;9.45;;;7.03;;
54241;SDS011;40156;51.080;17.082;2022-07-22T03:38:49;10.95;;;6.80;;
54241;SDS011;40156;51.080;17.082;2022-07-22T03:41:16;11.32;;;6.75;;
54241;SDS011;40156;51.080;17.082;2022-07-22T03:43:44;10.85;;;7.40;;
54241;SDS011;40156;51.080;17.082;2022-07-22T03:46:11;13.88;;;7.53;;
54241;SDS011;40156;51.080;17.082;2022-07-22T03:48:39;13.95;;;8.10;;
54241;SDS011;40156;51.080;17.082;2022-07-22T03:51:06;14.27;;;8.05;;
54241;SDS011;40156;51.080;17.082;2022-07-22T03:53:33;12.50;;;7.30;;
54241;SDS011;40156;51.080;17.082;2022-07-22T03:56:01;12.75;;;7.75;;
54241;SDS011;40156;51.080;17.082;2022-07-22T03:58:34;13.57;;;8.00;;
54241;SDS011;40156;51.080;17.082;2022-07-22T04:01:08;14.10;;;8.57;;
54241;SDS011;40156;51.080;17.082;2022-07-22T04:03:35;13.13;;;7.95;;
54241;SDS011;40156;51.080;17.082;2022-07-22T04:08:36;11.57;;;7.85;;
54241;SDS011;40156;51.080;17.082;2022-07-22T04:11:04;14.98;;;8.95;;
54241;SDS011;40156;51.080;17.082;2022-07-22T04:13:39;13.25;;;8.90;;
54241;SDS011;40156;51.080;17.082;2022-07-22T04:16:24;16.27;;;8.43;;
54241;SDS011;40156;51.080;17.082;2022-07-22T04:18:51;11.93;;;8.13;;
54241;SDS011;40156;51.080;17.082;2022-07-22T04:21:19;14.50;;;9.57;;
54241;SDS011;40156;51.080;17.082;2022-07-22T04:23:47;16.98;;;9.07;;
54241;SDS011;40156;51.080;17.082;2022-07-22T04:29:43;17.40;;;9.25;;
54241;SDS011;40156;51.080;17.082;2022-07-22T04:32:20;16.27;;;9.70;;
54241;SDS011;40156;51.080;17.082;2022-07-22T04:34:47;13.15;;;8.50;;
54241;SDS011;40156;51.080;17.082;2022-07-22T04:37:14;14.63;;;8.65;;
54241;SDS011;40156;51.080;17.082;2022-07-22T04:39:42;14.57;;;9.00;;
54241;SDS011;40156;51.080;17.082;2022-07-22T04:42:09;14.95;;;8.63;;
54241;SDS011;40156;51.080;17.082;2022-07-22T04:44:37;13.07;;;9.02;;
54241;SDS011;40156;51.080;17.082;2022-07-22T04:47:04;13.60;;;8.80;;
54241;SDS011;40156;51.080;17.082;2022-07-22T04:49:35;16.65;;;9.82;;
54241;SDS011;40156;51.080;17.082;2022-07-22T04:52:03;13.40;;;8.88;;
54241;SDS011;40156;51.080;17.082;2022-07-22T04:57:26;13.45;;;9.60;;
54241;SDS011;40156;51.080;17.082;2022-07-22T04:59:53;15.27;;;9.68;;
54241;SDS011;40156;51.080;17.082;2022-07-22T05:02:21;15.18;;;9.75;;
54241;SDS011;40156;51.080;17.082;2022-07-22T05:04:49;14.60;;;9.07;;
54241;SDS011;40156;51.080;17.082;2022-07-22T05:07:30;12.45;;;9.45;;
54241;SDS011;40156;51.080;17.082;2022-07-22T05:09:58;14.98;;;9.00;;
54241;SDS011;40156;51.080;17.082;2022-07-22T05:12:31;14.40;;;8.48;;
54241;SDS011;40156;51.080;17.082;2022-07-22T05:15:05;12.25;;;8.73;;
54241;SDS011;40156;51.080;17.082;2022-07-22T05:17:32;13.52;;;8.43;;
54241;SDS011;40156;51.080;17.082;2022-07-22T05:20:05;14.80;;;8.48;;
54241;SDS011;40156;51.080;17.082;2022-07-22T05:25:22;10.57;;;8.30;;
54241;SDS011;40156;51.080;17.082;2022-07-22T05:27:50;10.48;;;8.18;;
54241;SDS011;40156;51.080;17.082;2022-07-22T05:30:18;12.57;;;7.72;;
54241;SDS011;40156;51.080;17.082;2022-07-22T05:32:50;8.30;;;7.18;;
54241;SDS011;40156;51.080;17.082;2022-07-22T05:35:18;13.15;;;7.68;;
54241;SDS011;40156;51.080;17.082;2022-07-22T05:37:46;10.95;;;7.68;;
54241;SDS011;40156;51.080;17.082;2022-07-22T05:42:49;10.70;;;7.25;;
54241;SDS011;40156;51.080;17.082;2022-07-22T05:45:23;9.77;;;6.72;;
54241;SDS011;40156;51.080;17.082;2022-07-22T05:47:51;7.97;;;6.40;;
54241;SDS011;40156;51.080;17.082;2022-07-22T05:50:18;11.15;;;7.47;;
54241;SDS011;40156;51.080;17.082;2022-07-22T05:52:46;18.10;;;10.18;;
54241;SDS011;40156;51.080;17.082;2022-07-22T05:55:13;11.38;;;7.78;;
54241;SDS011;40156;51.080;17.082;2022-07-22T05:57:40;11.48;;;9.07;;
54241;SDS011;40156;51.080;17.082;2022-07-22T06:00:08;13.30;;;8.57;;
54241;SDS011;40156;51.080;17.082;2022-07-22T06:02:35;16.48;;;8.25;;
54241;SDS011;40156;51.080;17.082;2022-07-22T06:05:03;13.43;;;8.25;;
54241;SDS011;40156;51.080;17.082;2022-07-22T06:07:30;13.60;;;9.05;;
54241;SDS011;40156;51.080;17.082;2022-07-22T06:10:07;19.08;;;12.30;;
54241;SDS011;40156;51.080;17.082;2022-07-22T06:12:34;14.32;;;10.30;;
54241;SDS011;40156;51.080;17.082;2022-07-22T06:15:02;14.68;;;9.95;;
54241;SDS011;40156;51.080;17.082;2022-07-22T06:17:32;12.52;;;7.80;;
54241;SDS011;40156;51.080;17.082;2022-07-22T06:20:00;17.13;;;7.70;;
54241;SDS011;40156;51.080;17.082;2022-07-22T06:22:27;10.40;;;7.15;;
54241;SDS011;40156;51.080;17.082;2022-07-22T06:25:05;9.82;;;7.15;;
54241;SDS011;40156;51.080;17.082;2022-07-22T06:28:00;11.52;;;7.32;;
54241;SDS011;40156;51.080;17.082;2022-07-22T06:30:42;8.32;;;6.72;;
54241;SDS011;40156;51.080;17.082;2022-07-22T06:33:09;9.10;;;6.95;;
54241;SDS011;40156;51.080;17.082;2022-07-22T06:38:14;9.35;;;7.03;;
54241;SDS011;40156;51.080;17.082;2022-07-22T06:40:56;10.35;;;7.43;;
54241;SDS011;40156;51.080;17.082;2022-07-22T06:43:24;9.68;;;6.90;;
54241;SDS011;40156;51.080;17.082;2022-07-22T06:45:56;9.68;;;6.88;;
54241;SDS011;40156;51.080;17.082;2022-07-22T06:48:29;10.95;;;8.15;;
54241;SDS011;40156;51.080;17.082;2022-07-22T06:50:57;10.55;;;7.13;;
54241;SDS011;40156;51.080;17.082;2022-07-22T06:53:38;11.70;;;7.80;;
54241;SDS011;40156;51.080;17.082;2022-07-22T06:58:48;10.05;;;7.68;;
54241;SDS011;40156;51.080;17.082;2022-07-22T07:01:15;10.20;;;7.45;;
54241;SDS011;40156;51.080;17.082;2022-07-22T07:03:43;13.02;;;8.10;;
54241;SDS011;40156;51.080;17.082;2022-07-22T07:06:11;11.00;;;7.68;;
54241;SDS011;40156;51.080;17.082;2022-07-22T07:08:39;10.82;;;6.88;;
54241;SDS011;40156;51.080;17.082;2022-07-22T07:11:07;9.50;;;7.95;;
54241;SDS011;40156;51.080;17.082;2022-07-22T07:13:34;8.32;;;7.10;;
54241;SDS011;40156;51.080;17.082;2022-07-22T07:16:02;9.68;;;7.38;;
54241;SDS011;40156;51.080;17.082;2022-07-22T07:18:29;9.13;;;6.97;;
54241;SDS011;40156;51.080;17.082;2022-07-22T07:21:04;11.00;;;7.97;;
54241;SDS011;40156;51.080;17.082;2022-07-22T07:23:35;11.00;;;8.38;;
54241;SDS011;40156;51.080;17.082;2022-07-22T07:32:15;9.48;;;7.70;;
54241;SDS011;40156;51.080;17.082;2022-07-22T07:34:43;13.00;;;7.25;;
54241;SDS011;40156;51.080;17.082;2022-07-22T07:37:10;8.95;;;7.30;;
54241;SDS011;40156;51.080;17.082;2022-07-22T07:39:39;12.18;;;7.85;;
54241;SDS011;40156;51.080;17.082;2022-07-22T07:42:06;7.25;;;6.57;;
54241;SDS011;40156;51.080;17.082;2022-07-22T07:44:34;7.88;;;7.18;;
54241;SDS011;40156;51.080;17.082;2022-07-22T07:47:01;8.02;;;6.97;;
54241;SDS011;40156;51.080;17.082;2022-07-22T07:49:30;7.80;;;7.03;;
54241;SDS011;40156;51.080;17.082;2022-07-22T07:51:57;10.48;;;7.57;;
54241;SDS011;40156;51.080;17.082;2022-07-22T07:54:25;10.30;;;8.10;;
54241;SDS011;40156;51.080;17.082;2022-07-22T07:59:23;8.73;;;7.80;;
54241;SDS011;40156;51.080;17.082;2022-07-22T08:01:55;9.35;;;7.47;;
54241;SDS011;40156;51.080;17.082;2022-07-22T08:04:27;8.73;;;7.63;;
54241;SDS011;40156;51.080;17.082;2022-07-22T08:07:09;9.73;;;7.00;;
54241;SDS011;40156;51.080;17.082;2022-07-22T08:09:37;10.63;;;7.53;;
54241;SDS011;40156;51.080;17.082;2022-07-22T08:12:05;10.43;;;7.93;;
54241;SDS011;40156;51.080;17.082;2022-07-22T08:17:47;8.15;;;7.32;;
54241;SDS011;40156;51.080;17.082;2022-07-22T08:20:14;12.57;;;7.65;;
54241;SDS011;40156;51.080;17.082;2022-07-22T08:22:48;8.27;;;7.47;;
54241;SDS011;40156;51.080;17.082;2022-07-22T08:25:16;8.50;;;7.47;;
54241;SDS011;40156;51.080;17.082;2022-07-22T08:27:44;9.63;;;7.53;;
54241;SDS011;40156;51.080;17.082;2022-07-22T08:30:12;10.98;;;7.55;;
54241;SDS011;40156;51.080;17.082;2022-07-22T08:32:40;9.55;;;7.65;;
54241;SDS011;40156;51.080;17.082;2022-07-22T08:35:10;8.30;;;7.60;;
54241;SDS011;40156;51.080;17.082;2022-07-22T08:37:38;8.57;;;7.68;;
54241;SDS011;40156;51.080;17.082;2022-07-22T08:43:27;9.20;;;6.75;;
54241;SDS011;40156;51.080;17.082;2022-07-22T08:45:55;8.20;;;6.75;;
54241;SDS011;40156;51.080;17.082;2022-07-22T08:48:23;8.13;;;6.68;;
54241;SDS011;40156;51.080;17.082;2022-07-22T08:50:51;10.55;;;6.70;;
54241;SDS011;40156;51.080;17.082;2022-07-22T08:53:19;8.98;;;7.18;;
54241;SDS011;40156;51.080;17.082;2022-07-22T08:55:47;7.57;;;6.88;;
54241;SDS011;40156;51.080;17.082;2022-07-22T08:58:15;8.63;;;7.53;;
54241;SDS011;40156;51.080;17.082;2022-07-22T09:00:43;9.57;;;7.70;;
54241;SDS011;40156;51.080;17.082;2022-07-22T09:03:17;10.50;;;8.05;;
54241;SDS011;40156;51.080;17.082;2022-07-22T09:05:47;9.05;;;7.70;;
54241;SDS011;40156;51.080;17.082;2022-07-22T09:08:15;10.50;;;7.35;;
54241;SDS011;40156;51.080;17.082;2022-07-22T09:10:43;8.57;;;7.22;;
54241;SDS011;40156;51.080;17.082;2022-07-22T09:13:28;7.95;;;7.25;;
54241;SDS011;40156;51.080;17.082;2022-07-22T09:16:00;8.45;;;7.00;;
54241;SDS011;40156;51.080;17.082;2022-07-22T09:18:27;8.65;;;6.72;;
54241;SDS011;40156;51.080;17.082;2022-07-22T09:21:02;8.20;;;7.35;;
54241;SDS011;40156;51.080;17.082;2022-07-22T09:23:29;9.45;;;8.45;;
54241;SDS011;40156;51.080;17.082;2022-07-22T09:28:55;9.27;;;7.38;;
54241;SDS011;40156;51.080;17.082;2022-07-22T09:31:26;9.18;;;7.28;;
54241;SDS011;40156;51.080;17.082;2022-07-22T09:33:57;7.95;;;7.15;;
54241;SDS011;40156;51.080;17.082;2022-07-22T09:36:25;7.47;;;6.78;;
54241;SDS011;40156;51.080;17.082;2022-07-22T09:38:52;7.70;;;6.90;;
54241;SDS011;40156;51.080;17.082;2022-07-22T09:41:20;8.35;;;6.20;;
54241;SDS011;40156;51.080;17.082;2022-07-22T09:43:48;7.80;;;6.93;;
54241;SDS011;40156;51.080;17.082;2022-07-22T09:46:16;9.40;;;6.70;;
54241;SDS011;40156;51.080;17.082;2022-07-22T09:48:44;6.88;;;6.13;;
54241;SDS011;40156;51.080;17.082;2022-07-22T09:51:23;8.77;;;6.75;;
54241;SDS011;40156;51.080;17.082;2022-07-22T09:53:51;8.27;;;6.45;;
54241;SDS011;40156;51.080;17.082;2022-07-22T09:56:19;7.63;;;6.35;;
54241;SDS011;40156;51.080;17.082;2022-07-22T09:58:46;7.03;;;6.43;;
54241;SDS011;40156;51.080;17.082;2022-07-22T10:01:14;7.82;;;6.15;;
54241;SDS011;40156;51.080;17.082;2022-07-22T10:03:43;6.93;;;6.20;;
54241;SDS011;40156;51.080;17.082;2022-07-22T10:06:11;6.68;;;6.05;;
54241;SDS011;40156;51.080;17.082;2022-07-22T10:08:39;7.45;;;6.00;;
54241;SDS011;40156;51.080;17.082;2022-07-22T10:11:09;6.90;;;6.30;;
54241;SDS011;40156;51.080;17.082;2022-07-22T10:13:37;6.78;;;6.18;;
54241;SDS011;40156;51.080;17.082;2022-07-22T10:18:57;8.70;;;5.60;;
54241;SDS011;40156;51.080;17.082;2022-07-22T10:25:00;5.50;;;5.00;;
54241;SDS011;40156;51.080;17.082;2022-07-22T10:30:41;5.93;;;5.40;;
54241;SDS011;40156;51.080;17.082;2022-07-22T10:33:14;5.78;;;5.20;;
54241;SDS011;40156;51.080;17.082;2022-07-22T10:38:15;5.97;;;5.38;;
54241;SDS011;40156;51.080;17.082;2022-07-22T10:40:46;5.68;;;5.15;;
54241;SDS011;40156;51.080;17.082;2022-07-22T10:43:15;5.65;;;5.00;;
54241;SDS011;40156;51.080;17.082;2022-07-22T10:48:58;5.80;;;4.60;;
54241;SDS011;40156;51.080;17.082;2022-07-22T10:51:26;6.72;;;4.93;;
54241;SDS011;40156;51.080;17.082;2022-07-22T10:56:28;5.20;;;4.70;;
54241;SDS011;40156;51.080;17.082;2022-07-22T10:59:13;5.63;;;5.10;;
54241;SDS011;40156;51.080;17.082;2022-07-22T11:01:48;5.35;;;4.90;;
54241;SDS011;40156;51.080;17.082;2022-07-22T11:04:18;5.30;;;4.80;;
54241;SDS011;40156;51.080;17.082;2022-07-22T11:06:46;6.78;;;4.78;;
54241;SDS011;40156;51.080;17.082;2022-07-22T11:12:18;5.13;;;4.63;;
54241;SDS011;40156;51.080;17.082;2022-07-22T11:14:47;6.88;;;4.75;;
54241;SDS011;40156;51.080;17.082;2022-07-22T11:17:15;5.38;;;4.82;;
54241;SDS011;40156;51.080;17.082;2022-07-22T11:19:42;5.22;;;4.72;;
54241;SDS011;40156;51.080;17.082;2022-07-22T11:22:16;4.68;;;4.28;;
54241;SDS011;40156;51.080;17.082;2022-07-22T11:24:47;7.18;;;4.05;;
54241;SDS011;40156;51.080;17.082;2022-07-22T11:27:15;4.90;;;4.40;;
54241;SDS011;40156;51.080;17.082;2022-07-22T11:29:52;5.22;;;4.70;;
54241;SDS011;40156;51.080;17.082;2022-07-22T11:32:20;4.60;;;4.20;;
54241;SDS011;40156;51.080;17.082;2022-07-22T11:35:10;5.00;;;4.43;;
54241;SDS011;40156;51.080;17.082;2022-07-22T11:37:38;5.00;;;4.25;;
54241;SDS011;40156;51.080;17.082;2022-07-22T11:40:06;6.70;;;4.00;;
54241;SDS011;40156;51.080;17.082;2022-07-22T11:42:34;5.05;;;4.55;;
54241;SDS011;40156;51.080;17.082;2022-07-22T11:45:02;4.60;;;3.65;;
54241;SDS011;40156;51.080;17.082;2022-07-22T11:47:29;4.60;;;3.90;;
54241;SDS011;40156;51.080;17.082;2022-07-22T11:49:57;5.80;;;4.38;;
54241;SDS011;40156;51.080;17.082;2022-07-22T11:52:25;5.82;;;4.28;;
54241;SDS011;40156;51.080;17.082;2022-07-22T11:54:59;4.40;;;4.00;;
54241;SDS011;40156;51.080;17.082;2022-07-22T11:57:27;4.57;;;4.15;;
54241;SDS011;40156;51.080;17.082;2022-07-22T11:59:54;5.50;;;3.90;;
54241;SDS011;40156;51.080;17.082;2022-07-22T12:02:22;4.53;;;4.10;;
54241;SDS011;40156;51.080;17.082;2022-07-22T12:04:50;4.90;;;4.40;;
54241;SDS011;40156;51.080;17.082;2022-07-22T12:07:30;4.65;;;4.25;;
54241;SDS011;40156;51.080;17.082;2022-07-22T12:09:58;6.30;;;4.60;;
54241;SDS011;40156;51.080;17.082;2022-07-22T12:12:41;4.85;;;4.45;;
54241;SDS011;40156;51.080;17.082;2022-07-22T12:15:09;6.47;;;4.13;;
54241;SDS011;40156;51.080;17.082;2022-07-22T12:18:13;4.60;;;4.15;;
54241;SDS011;40156;51.080;17.082;2022-07-22T12:20:48;4.72;;;4.32;;
54241;SDS011;40156;51.080;17.082;2022-07-22T12:23:21;5.72;;;4.30;;
54241;SDS011;40156;51.080;17.082;2022-07-22T12:28:36;5.05;;;4.50;;
54241;SDS011;40156;51.080;17.082;2022-07-22T12:31:04;5.88;;;4.30;;
54241;SDS011;40156;51.080;17.082;2022-07-22T12:36:46;4.82;;;4.32;;
54241;SDS011;40156;51.080;17.082;2022-07-22T12:39:14;5.63;;;4.20;;
54241;SDS011;40156;51.080;17.082;2022-07-22T12:41:45;6.95;;;4.18;;
54241;SDS011;40156;51.080;17.082;2022-07-22T12:44:31;4.80;;;4.30;;
54241;SDS011;40156;51.080;17.082;2022-07-22T12:47:01;4.43;;;4.05;;
54241;SDS011;40156;51.080;17.082;2022-07-22T12:49:29;8.25;;;4.50;;
54241;SDS011;40156;51.080;17.082;2022-07-22T12:52:06;4.93;;;3.97;;
54241;SDS011;40156;51.080;17.082;2022-07-22T12:54:34;4.60;;;4.10;;
54241;SDS011;40156;51.080;17.082;2022-07-22T12:57:02;4.53;;;3.70;;
54241;SDS011;40156;51.080;17.082;2022-07-22T12:59:30;4.43;;;3.97;;
54241;SDS011;40156;51.080;17.082;2022-07-22T13:01:58;3.92;;;3.63;;
54241;SDS011;40156;51.080;17.082;2022-07-22T13:04:25;5.88;;;3.72;;
54241;SDS011;40156;51.080;17.082;2022-07-22T13:06:53;6.20;;;4.22;;
54241;SDS011;40156;51.080;17.082;2022-07-22T13:09:20;5.85;;;4.22;;
54241;SDS011;40156;51.080;17.082;2022-07-22T13:18:28;6.38;;;4.22;;
54241;SDS011;40156;51.080;17.082;2022-07-22T13:20:56;5.25;;;4.43;;
54241;SDS011;40156;51.080;17.082;2022-07-22T13:23:23;4.30;;;3.90;;
54241;SDS011;40156;51.080;17.082;2022-07-22T13:25:51;5.00;;;4.00;;
54241;SDS011;40156;51.080;17.082;2022-07-22T13:28:22;4.65;;;4.22;;
54241;SDS011;40156;51.080;17.082;2022-07-22T13:30:50;6.50;;;4.40;;
54241;SDS011;40156;51.080;17.082;2022-07-22T13:33:17;4.85;;;4.22;;
54241;SDS011;40156;51.080;17.082;2022-07-22T13:39:14;9.18;;;5.20;;
54241;SDS011;40156;51.080;17.082;2022-07-22T13:44:25;7.57;;;6.05;;
54241;SDS011;40156;51.080;17.082;2022-07-22T13:46:55;11.70;;;8.80;;
54241;SDS011;40156;51.080;17.082;2022-07-22T13:49:24;11.68;;;7.40;;
54241;SDS011;40156;51.080;17.082;2022-07-22T13:51:58;16.60;;;14.10;;
54241;SDS011;40156;51.080;17.082;2022-07-22T13:54:26;15.45;;;11.73;;
54241;SDS011;40156;51.080;17.082;2022-07-22T13:56:53;11.65;;;8.18;;
54241;SDS011;40156;51.080;17.082;2022-07-22T13:59:22;7.28;;;5.80;;
54241;SDS011;40156;51.080;17.082;2022-07-22T14:01:50;6.32;;;5.72;;
54241;SDS011;40156;51.080;17.082;2022-07-22T14:04:22;5.47;;;4.70;;
54241;SDS011;40156;51.080;17.082;2022-07-22T14:06:50;5.50;;;4.20;;
54241;SDS011;40156;51.080;17.082;2022-07-22T14:09:17;9.43;;;4.18;;
54241;SDS011;40156;51.080;17.082;2022-07-22T14:12:05;8.85;;;7.05;;
54241;SDS011;40156;51.080;17.082;2022-07-22T14:14:40;9.55;;;5.97;;
54241;SDS011;40156;51.080;17.082;2022-07-22T14:17:08;6.13;;;4.90;;
54241;SDS011;40156;51.080;17.082;2022-07-22T14:19:36;9.43;;;5.07;;
54241;SDS011;40156;51.080;17.082;2022-07-22T14:22:04;5.80;;;4.50;;
54241;SDS011;40156;51.080;17.082;2022-07-22T14:24:31;4.55;;;4.15;;
54241;SDS011;40156;51.080;17.082;2022-07-22T14:26:59;5.30;;;4.38;;
54241;SDS011;40156;51.080;17.082;2022-07-22T14:29:26;6.07;;;3.88;;
54241;SDS011;40156;51.080;17.082;2022-07-22T14:31:54;8.20;;;4.57;;
54241;SDS011;40156;51.080;17.082;2022-07-22T14:37:04;4.43;;;4.03;;
54241;SDS011;40156;51.080;17.082;2022-07-22T14:39:31;6.22;;;5.43;;
54241;SDS011;40156;51.080;17.082;2022-07-22T14:41:59;6.53;;;4.50;;
54241;SDS011;40156;51.080;17.082;2022-07-22T14:44:27;5.47;;;4.68;;
54241;SDS011;40156;51.080;17.082;2022-07-22T14:46:55;6.28;;;4.32;;
54241;SDS011;40156;51.080;17.082;2022-07-22T14:49:22;5.05;;;4.43;;
54241;SDS011;40156;51.080;17.082;2022-07-22T14:51:50;4.97;;;4.35;;
54241;SDS011;40156;51.080;17.082;2022-07-22T14:54:18;4.30;;;3.90;;
54241;SDS011;40156;51.080;17.082;2022-07-22T14:56:46;5.15;;;4.65;;
54241;SDS011;40156;51.080;17.082;2022-07-22T14:59:13;5.68;;;5.10;;
54241;SDS011;40156;51.080;17.082;2022-07-22T15:01:41;5.00;;;4.35;;
54241;SDS011;40156;51.080;17.082;2022-07-22T15:07:41;6.93;;;4.63;;
54241;SDS011;40156;51.080;17.082;2022-07-22T15:10:09;8.60;;;4.75;;
54241;SDS011;40156;51.080;17.082;2022-07-22T15:12:36;6.18;;;4.47;;
54241;SDS011;40156;51.080;17.082;2022-07-22T15:15:15;8.75;;;4.90;;
54241;SDS011;40156;51.080;17.082;2022-07-22T15:17:43;6.07;;;4.68;;
54241;SDS011;40156;51.080;17.082;2022-07-22T15:20:10;6.22;;;4.72;;
54241;SDS011;40156;51.080;17.082;2022-07-22T15:22:38;6.22;;;4.85;;
54241;SDS011;40156;51.080;17.082;2022-07-22T15:25:05;11.10;;;5.10;;
54241;SDS011;40156;51.080;17.082;2022-07-22T15:27:33;5.13;;;4.47;;
54241;SDS011;40156;51.080;17.082;2022-07-22T15:30:00;5.53;;;4.30;;
54241;SDS011;40156;51.080;17.082;2022-07-22T15:32:28;6.05;;;5.45;;
54241;SDS011;40156;51.080;17.082;2022-07-22T15:38:09;5.18;;;4.50;;
54241;SDS011;40156;51.080;17.082;2022-07-22T15:40:36;5.22;;;4.72;;
54241;SDS011;40156;51.080;17.082;2022-07-22T15:43:07;5.38;;;4.88;;
54241;SDS011;40156;51.080;17.082;2022-07-22T15:45:37;4.97;;;4.30;;
54241;SDS011;40156;51.080;17.082;2022-07-22T15:48:09;6.40;;;4.72;;
54241;SDS011;40156;51.080;17.082;2022-07-22T15:50:36;6.20;;;4.60;;
54241;SDS011;40156;51.080;17.082;2022-07-22T15:53:10;6.00;;;4.68;;
54241;SDS011;40156;51.080;17.082;2022-07-22T15:55:39;8.23;;;4.38;;
54241;SDS011;40156;51.080;17.082;2022-07-22T15:58:07;7.13;;;4.60;;
54241;SDS011;40156;51.080;17.082;2022-07-22T16:00:34;7.13;;;4.70;;
54241;SDS011;40156;51.080;17.082;2022-07-22T16:03:02;8.15;;;4.80;;
54241;SDS011;40156;51.080;17.082;2022-07-22T16:05:30;6.90;;;4.50;;
54241;SDS011;40156;51.080;17.082;2022-07-22T16:07:59;5.07;;;4.55;;
54241;SDS011;40156;51.080;17.082;2022-07-22T16:10:26;6.45;;;5.03;;
54241;SDS011;40156;51.080;17.082;2022-07-22T16:13:00;5.63;;;4.78;;
54241;SDS011;40156;51.080;17.082;2022-07-22T16:15:29;5.35;;;4.75;;
54241;SDS011;40156;51.080;17.082;2022-07-22T16:17:57;5.78;;;4.78;;
54241;SDS011;40156;51.080;17.082;2022-07-22T16:20:24;5.45;;;4.40;;
54241;SDS011;40156;51.080;17.082;2022-07-22T16:22:52;7.32;;;4.82;;
54241;SDS011;40156;51.080;17.082;2022-07-22T16:25:19;8.98;;;4.93;;
54241;SDS011;40156;51.080;17.082;2022-07-22T16:27:54;6.82;;;4.70;;
54241;SDS011;40156;51.080;17.082;2022-07-22T16:30:22;4.97;;;4.47;;
54241;SDS011;40156;51.080;17.082;2022-07-22T16:33:06;5.95;;;4.60;;
54241;SDS011;40156;51.080;17.082;2022-07-22T16:35:36;7.57;;;5.28;;
54241;SDS011;40156;51.080;17.082;2022-07-22T16:38:04;7.40;;;4.80;;
54241;SDS011;40156;51.080;17.082;2022-07-22T16:40:31;8.95;;;5.18;;
54241;SDS011;40156;51.080;17.082;2022-07-22T16:42:59;6.30;;;5.13;;
54241;SDS011;40156;51.080;17.082;2022-07-22T16:45:27;6.43;;;4.63;;